Time;durP1;ratioP1;P1;durP2;ratioP2;P2;SDS_P1;SDS_P2;PMS_P1;PMS_P2;Temp;Humidity;BMP_temperature;BMP_pressure;BME280_temperature;BME280_humidity;BME280_pressure;Samples;Min_cycle;Max_cycle;Signal;HPM_P1;HPM_P2
2022/04/01 00:01:29;;;;;;;9.90;2.40;;;;;;;-0.91;65.35;99303.39;104150;1271;1003050;-70
2022/04/01 00:04:18;;;;;;;8.50;2.80;;;;;;;-0.91;64.97;99301.80;105117;1271;60876;-70
2022/04/01 00:07:07;;;;;;;7.80;2.30;;;;;;;-0.90;64.97;99303.14;105216;1271;72397;-70
2022/04/01 00:09:56;;;;;;;9.20;3.10;;;;;;;-0.91;65.25;99307.02;104869;1270;66822;-70
2022/04/01 00:12:46;;;;;;;7.50;2.30;;;;;;;-0.92;65.02;99306.73;104472;1271;1002972;-71
2022/04/01 00:15:35;;;;;;;8.80;2.50;;;;;;;-0.94;65.05;99304.70;105072;1271;59797;-70
2022/04/01 00:18:24;;;;;;;7.50;2.30;;;;;;;-0.95;65.05;99308.40;104862;1272;59653;-72
2022/04/01 00:21:15;;;;;;;8.70;2.80;;;;;;;-0.97;64.70;99305.20;104954;1271;73536;-71
2022/04/01 00:24:04;;;;;;;7.70;2.30;;;;;;;-0.98;63.50;99304.55;104944;1272;68773;-71
2022/04/01 00:26:55;;;;;;;8.70;2.60;;;;;;;-0.99;62.33;99307.02;104898;1271;72007;-72
2022/04/01 00:29:48;;;;;;;7.00;2.10;;;;;;;-1.00;61.90;99301.31;104951;1271;59656;-74
2022/04/01 00:32:38;;;;;;;7.80;2.20;;;;;;;-0.99;61.65;99305.81;104920;1271;59604;-70
2022/04/01 00:35:27;;;;;;;7.20;2.30;;;;;;;-0.98;60.86;99305.77;105252;1271;72234;-70
2022/04/01 00:38:16;;;;;;;6.70;2.10;;;;;;;-0.97;59.58;99306.42;104930;1271;66541;-71
2022/04/01 00:41:04;;;;;;;10.90;2.80;;;;;;;-0.96;58.67;99309.84;104982;1271;72883;-70
2022/04/01 00:44:25;;;;;;;8.10;2.50;;;;;;;-0.96;59.12;99315.59;105005;1271;59704;-71
2022/04/01 00:47:15;;;;;;;10.60;3.30;;;;;;;-0.97;59.07;99314.61;105355;1271;60231;-71
2022/04/01 00:50:05;;;;;;;7.40;2.20;;;;;;;-0.98;58.63;99312.73;104994;1272;72047;-70
2022/04/01 00:52:54;;;;;;;8.30;2.60;;;;;;;-0.99;58.23;99313.98;104237;1272;1003631;-69
2022/04/01 00:55:50;;;;;;;9.40;2.50;;;;;;;-1.01;57.89;99310.94;104447;1271;1003531;-70
2022/04/01 00:58:38;;;;;;;7.90;2.60;;;;;;;-1.01;57.28;99307.46;105087;1271;59792;-69
2022/04/01 01:01:27;;;;;;;7.40;2.20;;;;;;;-1.01;57.10;99308.16;104874;1271;60116;-70
2022/04/01 01:04:19;;;;;;;9.30;2.60;;;;;;;-1.03;56.86;99309.60;104871;1272;72557;-69
2022/04/01 01:07:16;;;;;;;9.10;2.90;;;;;;;-1.03;55.95;99304.55;105002;1271;66590;-72
2022/04/01 01:10:05;;;;;;;7.00;2.30;;;;;;;-1.03;55.80;99307.88;104930;1271;73002;-71
2022/04/01 01:12:56;;;;;;;7.40;2.00;;;;;;;-1.03;55.66;99309.42;104250;1271;1003801;-72
2022/04/01 01:15:45;;;;;;;8.10;2.30;;;;;;;-1.04;55.25;99308.43;104889;1271;60774;-71
2022/04/01 01:18:34;;;;;;;7.70;2.20;;;;;;;-1.04;54.77;99308.63;105097;1271;73792;-72
2022/04/01 01:21:23;;;;;;;7.40;2.40;;;;;;;-1.06;54.74;99308.34;105014;1271;68637;-71
2022/04/01 01:24:17;;;;;;;7.80;2.50;;;;;;;-1.06;54.54;99307.48;104892;1271;70930;-71
2022/04/01 01:27:08;;;;;;;8.00;2.80;;;;;;;-1.07;54.96;99304.58;104372;1271;1002978;-71
2022/04/01 01:29:57;;;;;;;10.40;2.50;;;;;;;-1.07;54.65;99302.81;104995;1271;60912;-70
2022/04/01 01:32:45;;;;;;;8.00;2.50;;;;;;;-1.07;54.41;99298.12;104111;1271;1015923;-69
2022/04/01 01:35:34;;;;;;;8.10;2.80;;;;;;;-1.08;54.33;99302.49;104715;1271;68106;-69
2022/04/01 01:38:22;;;;;;;8.50;2.40;;;;;;;-1.07;54.37;99302.66;104885;1271;73098;-70
2022/04/01 01:41:11;;;;;;;9.30;2.50;;;;;;;-1.07;54.18;99300.91;104830;1272;59758;-69
2022/04/01 01:44:00;;;;;;;10.00;2.90;;;;;;;-1.07;54.05;99300.55;104886;1271;59688;-70
2022/04/01 01:46:51;;;;;;;7.30;2.40;;;;;;;-1.08;53.97;99300.77;104849;1271;73371;-70
2022/04/01 01:54:43;;;;;;;8.40;2.90;;;;;;;-1.08;54.22;99303.38;104897;1271;66959;-70
2022/04/01 01:55:58;;;;;;;6.40;2.40;;;;;;;-1.11;54.36;99301.27;105092;1271;59775;-70
2022/04/01 01:58:49;;;;;;;8.40;2.50;;;;;;;-1.12;54.96;99305.82;104151;1272;1003727;-70
2022/04/01 02:01:40;;;;;;;6.40;2.20;;;;;;;-1.14;54.87;99295.98;104897;1271;73535;-71
2022/04/01 02:04:28;;;;;;;12.80;2.30;;;;;;;-1.15;54.85;99297.94;104891;1271;67209;-71
2022/04/01 02:07:16;;;;;;;8.50;2.20;;;;;;;-1.15;55.29;99294.98;104976;1271;71848;-71
2022/04/01 02:10:06;;;;;;;8.10;2.20;;;;;;;-1.14;54.83;99291.98;104988;1272;59675;-70
2022/04/01 02:12:56;;;;;;;8.60;2.10;;;;;;;-1.16;55.04;99291.36;104958;1271;61327;-70
2022/04/01 02:15:45;;;;;;;6.60;2.00;;;;;;;-1.17;55.01;99291.05;104874;1271;72609;-68
2022/04/01 02:18:36;;;;;;;7.10;2.00;;;;;;;-1.18;55.04;99290.94;104149;1271;1003713;-69
2022/04/01 02:21:24;;;;;;;6.10;1.90;;;;;;;-1.20;54.99;99293.95;105013;1271;73347;-69
2022/04/01 02:24:17;;;;;;;8.70;2.30;;;;;;;-1.19;53.85;99291.16;104143;1271;1002919;-70
2022/04/01 02:27:07;;;;;;;9.00;2.30;;;;;;;-1.20;53.55;99294.30;104853;1270;59808;-69
2022/04/01 02:29:57;;;;;;;6.50;1.90;;;;;;;-1.22;53.64;99294.71;104627;1271;1003257;-69
2022/04/01 02:33:11;;;;;;;7.40;1.70;;;;;;;-1.23;53.63;99291.65;104510;1271;1002612;-69
2022/04/01 02:36:10;;;;;;;7.20;2.10;;;;;;;-1.24;53.76;99294.80;104820;1271;72671;-69
2022/04/01 02:39:01;;;;;;;6.50;1.90;;;;;;;-1.24;54.06;99293.09;104848;1271;59795;-69
2022/04/01 02:41:50;;;;;;;6.10;1.80;;;;;;;-1.26;54.15;99296.14;103935;1272;1003656;-70
2022/04/01 02:44:39;;;;;;;8.40;2.00;;;;;;;-1.27;54.04;99296.52;105025;1271;73235;-70
2022/04/01 02:47:28;;;;;;;8.60;1.90;;;;;;;-1.27;54.21;99299.48;104751;1273;68103;-70
2022/04/01 02:50:17;;;;;;;6.50;2.10;;;;;;;-1.28;53.80;99295.16;104190;1271;1003586;-70
2022/04/01 02:53:06;;;;;;;6.50;1.90;;;;;;;-1.28;53.41;99299.84;104850;1271;59801;-70
2022/04/01 02:55:54;;;;;;;7.40;2.20;;;;;;;-1.29;53.85;99300.75;105289;1271;59579;-71
2022/04/01 02:58:43;;;;;;;6.00;1.80;;;;;;;-1.31;53.85;99296.66;104919;1272;73388;-72
2022/04/01 03:01:31;;;;;;;8.50;2.00;;;;;;;-1.32;53.41;99291.84;104867;1271;68675;-72
2022/04/01 03:04:20;;;;;;;6.50;1.60;;;;;;;-1.32;53.37;99296.02;104228;1271;1003148;-69
2022/04/01 03:07:13;;;;;;;6.20;2.10;;;;;;;-1.31;52.99;99292.54;104959;1271;59781;-69
2022/04/01 03:10:02;;;;;;;7.40;2.00;;;;;;;-1.30;52.49;99294.19;104751;1271;60603;-69
2022/04/01 03:12:53;;;;;;;6.20;1.80;;;;;;;-1.29;52.72;99293.98;105198;1271;73505;-70
2022/04/01 03:16:04;;;;;;;7.00;1.80;;;;;;;-1.29;53.01;99291.55;105141;1271;68082;-68
2022/04/01 03:19:02;;;;;;;7.30;1.90;;;;;;;-1.29;53.15;99295.21;105105;1272;73118;-68
2022/04/01 03:21:51;;;;;;;7.00;1.90;;;;;;;-1.30;53.45;99294.38;104886;1271;59689;-68
2022/04/01 03:24:40;;;;;;;7.90;1.90;;;;;;;-1.29;53.40;99292.27;104881;1272;59787;-68
2022/04/01 03:27:31;;;;;;;6.40;1.60;;;;;;;-1.29;53.66;99301.45;104820;1272;73789;-68
2022/04/01 03:30:19;;;;;;;5.80;1.80;;;;;;;-1.30;53.51;99300.46;104904;1272;66934;-69
2022/04/01 03:33:08;;;;;;;8.10;2.40;;;;;;;-1.31;52.80;99298.44;105036;1271;73118;-70
2022/04/01 03:36:00;;;;;;;13.40;2.70;;;;;;;-1.33;52.76;99296.94;104194;1272;1003885;-70
2022/04/01 03:38:52;;;;;;;9.30;2.20;;;;;;;-1.33;52.53;99296.61;104221;1273;1003401;-70
2022/04/01 03:41:51;;;;;;;9.90;2.40;;;;;;;-1.32;51.59;99294.30;105139;1272;71799;-70
2022/04/01 03:44:41;;;;;;;14.30;2.90;;;;;;;-1.29;51.69;99302.38;104199;1273;1002683;-70
2022/04/01 03:48:02;;;;;;;12.20;2.70;;;;;;;-1.28;52.04;99305.61;104312;1271;1003148;-69
2022/04/01 03:50:59;;;;;;;17.30;3.80;;;;;;;-1.28;51.88;99298.66;104867;1271;59680;-69
2022/04/01 03:54:01;;;;;;;20.30;4.50;;;;;;;-1.27;51.65;99302.60;104868;1272;60384;-69
2022/04/01 03:57:15;;;;;;;38.20;6.40;;;;;;;-1.27;52.15;99304.49;105138;1271;73011;-69
2022/04/01 04:00:22;;;;;;;22.40;4.70;;;;;;;-1.27;51.70;99304.52;105298;1271;67194;-70
2022/04/01 04:03:11;;;;;;;25.60;4.20;;;;;;;-1.24;51.48;99307.53;104893;1272;71826;-69
2022/04/01 04:06:02;;;;;;;25.60;5.00;;;;;;;-1.23;51.44;99310.96;104096;1272;1002944;-69
2022/04/01 04:09:03;;;;;;;18.70;3.80;;;;;;;-1.23;51.24;99311.14;104987;1272;60321;-69
2022/04/01 04:11:53;;;;;;;15.20;2.90;;;;;;;-1.23;51.28;99314.10;104305;1273;1015942;-68
2022/04/01 04:14:52;;;;;;;15.90;3.60;;;;;;;-1.23;50.91;99311.84;104996;1273;66861;-70
2022/04/01 04:17:45;;;;;;;15.00;2.80;;;;;;;-1.22;51.04;99313.53;104847;1273;70000;-69
2022/04/01 04:20:57;;;;;;;8.90;2.00;;;;;;;-1.22;51.34;99305.88;104974;1273;59696;-69
2022/04/01 04:23:48;;;;;;;10.20;2.30;;;;;;;-1.19;51.70;99308.37;104966;1272;60733;-70
2022/04/01 04:26:49;;;;;;;21.90;3.90;;;;;;;-1.19;51.58;99311.15;104919;1273;73391;-70
2022/04/01 04:29:50;;;;;;;19.00;3.90;;;;;;;-1.18;51.47;99309.91;105088;1270;66915;-69
2022/04/01 04:32:56;;;;;;;21.40;3.40;;;;;;;-1.16;51.16;99310.33;105124;1271;73285;-70
2022/04/01 04:35:49;;;;;;;20.10;4.30;;;;;;;-1.13;50.67;99305.68;104421;1272;1003035;-69
2022/04/01 04:38:42;;;;;;;16.10;2.80;;;;;;;-1.10;50.91;99303.13;105181;1271;59741;-70
2022/04/01 04:41:33;;;;;;;19.50;3.60;;;;;;;-1.06;50.63;99305.90;105186;1273;72213;-74
2022/04/01 04:44:28;;;;;;;18.00;2.90;;;;;;;-1.03;50.91;99301.25;105360;1271;67699;-73
2022/04/01 04:47:25;;;;;;;14.20;3.00;;;;;;;-0.99;50.93;99308.22;105275;1271;72612;-73
2022/04/01 04:50:16;;;;;;;13.60;2.80;;;;;;;-0.95;51.03;99300.90;105166;1273;59758;-75
2022/04/01 04:53:06;;;;;;;17.60;3.50;;;;;;;-0.90;50.47;99295.14;104440;1270;1003727;-73
2022/04/01 04:55:57;;;;;;;16.00;3.20;;;;;;;-0.82;49.91;99302.67;105253;1271;72322;-73
2022/04/01 04:58:48;;;;;;;12.80;2.70;;;;;;;-0.76;49.59;99296.45;105341;1271;68806;-73
2022/04/01 05:01:55;;;;;;;14.90;3.20;;;;;;;-0.68;49.42;99298.05;105153;1273;72821;-74
2022/04/01 05:05:15;;;;;;;12.40;2.60;;;;;;;-0.60;49.55;99306.04;104957;1271;59778;-71
2022/04/01 05:09:10;;;;;;;10.40;2.20;;;;;;;-0.50;49.32;99309.27;105398;1271;60488;-72
2022/04/01 05:12:56;;;;;;;8.40;2.10;;;;;;;-0.37;48.58;99314.45;105381;1271;73307;-73
2022/04/01 05:16:09;;;;;;;9.30;2.10;;;;;;;-0.24;48.35;99316.84;105083;1278;66781;-73
2022/04/01 05:19:12;;;;;;;9.90;2.10;;;;;;;-0.12;47.99;99319.44;104485;1277;72996;-72
2022/04/01 05:22:09;;;;;;;10.60;2.00;;;;;;;-0.02;47.24;99313.55;104648;1279;59868;-72
2022/04/01 05:25:18;;;;;;;7.10;2.10;;;;;;;0.11;47.05;99321.02;104771;1279;59781;-73
2022/04/01 05:28:25;;;;;;;13.70;5.10;;;;;;;0.30;48.37;99308.42;104464;1279;74042;-72
2022/04/01 05:31:35;;;;;;;12.30;4.00;;;;;;;0.47;45.99;99310.94;104780;1278;66582;-72
2022/04/01 05:34:46;;;;;;;9.60;2.90;;;;;;;0.64;45.40;99313.09;104725;1279;73656;-72
2022/04/01 05:37:36;;;;;;;6.40;1.80;;;;;;;0.75;44.46;99314.16;104515;1279;59745;-74
2022/04/01 05:40:28;;;;;;;7.70;2.30;;;;;;;0.83;43.84;99316.68;104559;1279;1016497;-72
2022/04/01 05:43:19;;;;;;;6.30;1.90;;;;;;;0.97;43.48;99324.23;104253;1278;73334;-74
2022/04/01 05:46:37;;;;;;;6.50;2.20;;;;;;;1.10;42.85;99326.91;104862;1279;68340;-74
2022/04/01 05:49:27;;;;;;;7.30;2.10;;;;;;;1.21;42.91;99324.95;104390;1278;73240;-72
2022/04/01 05:52:18;;;;;;;6.70;2.00;;;;;;;1.33;42.17;99325.20;104427;1276;59735;-72
2022/04/01 05:55:07;;;;;;;7.20;2.00;;;;;;;1.48;42.15;99337.35;105172;1273;60030;-73
2022/04/01 05:57:56;;;;;;;6.60;1.80;;;;;;;1.60;41.66;99336.75;104956;1273;73312;-72
2022/04/01 06:00:52;;;;;;;8.30;1.80;;;;;;;1.71;42.13;99336.89;105087;1273;67065;-73
2022/04/01 06:03:43;;;;;;;7.40;2.10;;;;;;;1.83;41.81;99335.36;105113;1273;72770;-72
2022/04/01 06:06:42;;;;;;;6.80;1.70;;;;;;;1.92;41.26;99337.84;105240;1273;59770;-73
2022/04/01 06:09:49;;;;;;;5.70;1.60;;;;;;;2.03;40.67;99334.49;105785;1272;59759;-73
2022/04/01 06:13:09;;;;;;;6.30;1.70;;;;;;;2.20;40.33;99339.86;105083;1271;73369;-71
2022/04/01 06:16:54;;;;;;;7.60;1.90;;;;;;;2.34;40.90;99336.45;105804;1271;66681;-71
2022/04/01 06:19:51;;;;;;;6.00;1.90;;;;;;;2.49;41.34;99336.34;105278;1272;71885;-69
2022/04/01 06:22:57;;;;;;;5.50;1.60;;;;;;;2.66;41.50;99340.30;104948;1271;59703;-69
2022/04/01 06:25:56;;;;;;;7.00;1.90;;;;;;;2.79;41.30;99334.66;105290;1272;60462;-69
2022/04/01 06:29:19;;;;;;;6.30;1.70;;;;;;;2.99;40.58;99345.27;105249;1271;73813;-69
2022/04/01 06:32:18;;;;;;;6.90;1.90;;;;;;;3.38;40.30;99345.44;105125;1271;68018;-70
2022/04/01 06:35:18;;;;;;;7.40;2.10;;;;;;;3.90;38.37;99339.50;104912;1273;73294;-69
2022/04/01 06:38:12;;;;;;;6.50;1.90;;;;;;;4.42;36.10;99328.02;105178;1273;59738;-69
2022/04/01 06:41:14;;;;;;;6.20;1.90;;;;;;;4.88;35.34;99332.96;105047;1273;60268;-70
2022/04/01 06:44:10;;;;;;;7.20;2.00;;;;;;;5.28;34.21;99336.66;105153;1272;73813;-71
2022/04/01 06:47:19;;;;;;;6.70;2.00;;;;;;;5.82;34.48;99334.41;105115;1273;68123;-71
2022/04/01 06:50:09;;;;;;;7.70;2.00;;;;;;;6.38;34.31;99336.52;105174;1271;72349;-70
2022/04/01 06:53:19;;;;;;;5.90;1.80;;;;;;;6.79;33.47;99340.73;105155;1273;59669;-70
2022/04/01 06:56:26;;;;;;;7.50;1.90;;;;;;;7.04;32.57;99341.74;105447;1272;59739;-70
2022/04/01 06:59:17;;;;;;;6.80;2.20;;;;;;;7.38;32.05;99346.74;105143;1271;73774;-70
2022/04/01 07:02:07;;;;;;;7.20;2.30;;;;;;;7.59;30.44;99337.27;105193;1271;68327;-70
2022/04/01 07:04:55;;;;;;;6.80;2.10;;;;;;;7.89;29.97;99343.58;104938;1271;73618;-70
2022/04/01 07:07:46;;;;;;;7.30;2.10;;;;;;;8.22;29.61;99350.75;104978;1270;59796;-70
2022/04/01 07:10:35;;;;;;;8.50;1.70;;;;;;;8.17;28.02;99343.88;105098;1272;60859;-72
2022/04/01 07:13:24;;;;;;;7.10;1.70;;;;;;;8.79;27.99;99343.19;105252;1272;71939;-71
2022/04/01 07:16:15;;;;;;;6.50;1.70;;;;;;;9.25;26.73;99332.37;105198;1271;68477;-71
2022/04/01 07:19:03;;;;;;;5.70;1.70;;;;;;;9.46;26.00;99336.09;104987;1271;73106;-70
2022/04/01 07:21:52;;;;;;;6.20;1.70;;;;;;;9.72;25.58;99335.48;105330;1273;59754;-71
2022/04/01 07:24:40;;;;;;;6.90;1.80;;;;;;;9.68;25.40;99331.17;105023;1273;59688;-70
2022/04/01 07:27:29;;;;;;;6.40;1.40;;;;;;;9.79;25.74;99330.66;104911;1273;72495;-71
2022/04/01 07:30:18;;;;;;;5.90;1.70;;;;;;;10.10;25.77;99328.83;105069;1273;67891;-71
2022/04/01 07:33:10;;;;;;;7.10;1.80;;;;;;;10.34;25.51;99331.05;104950;1273;73199;-70
2022/04/01 07:35:59;;;;;;;7.40;1.50;;;;;;;10.59;24.73;99331.95;105002;1273;59773;-70
2022/04/01 07:38:47;;;;;;;7.00;2.20;;;;;;;10.47;24.27;99325.11;105026;1273;60272;-70
2022/04/01 07:41:36;;;;;;;6.80;2.60;;;;;;;10.64;24.66;99327.52;104982;1273;73361;-70
2022/04/01 07:44:24;;;;;;;8.90;3.50;;;;;;;10.76;24.62;99329.65;105191;1273;68131;-72
2022/04/01 07:47:14;;;;;;;8.80;2.10;;;;;;;11.11;24.83;99324.29;104960;1273;73119;-71
2022/04/01 07:50:05;;;;;;;5.80;1.50;;;;;;;11.08;23.73;99325.12;105008;1273;59739;-70
2022/04/01 07:52:54;;;;;;;5.70;1.60;;;;;;;10.98;22.93;99327.58;104993;1273;60817;-70
2022/04/01 07:55:48;;;;;;;8.70;1.60;;;;;;;11.08;23.29;99328.73;105313;1272;70681;-69
2022/04/01 07:58:37;;;;;;;5.30;1.40;;;;;;;11.19;23.25;99324.66;105052;1273;68670;-70
2022/04/01 08:01:28;;;;;;;5.70;1.50;;;;;;;11.30;23.08;99324.54;105170;1273;71654;-71
2022/04/01 08:04:19;;;;;;;5.70;1.70;;;;;;;11.74;22.64;99322.41;105106;1273;59990;-71
2022/04/01 08:07:07;;;;;;;7.20;1.30;;;;;;;11.84;22.22;99320.39;105042;1273;60892;-70
2022/04/01 08:09:57;;;;;;;6.70;1.50;;;;;;;12.17;22.01;99327.23;105162;1273;72266;-71
2022/04/01 08:12:46;;;;;;;6.60;1.70;;;;;;;12.31;21.69;99317.90;105234;1273;68291;-70
2022/04/01 08:15:34;;;;;;;5.90;1.40;;;;;;;12.44;21.62;99323.39;105041;1273;73661;-70
2022/04/01 08:18:23;;;;;;;13.00;6.70;;;;;;;12.68;21.56;99323.71;104950;1273;59869;-71
2022/04/01 08:21:11;;;;;;;8.40;2.00;;;;;;;13.10;21.44;99328.11;104977;1273;59717;-71
2022/04/01 08:24:02;;;;;;;5.60;1.80;;;;;;;13.53;20.93;99331.23;105362;1271;71524;-70
2022/04/01 08:26:51;;;;;;;5.90;1.70;;;;;;;13.84;20.64;99333.39;105033;1271;67416;-70
2022/04/01 08:29:41;;;;;;;8.40;2.40;;;;;;;14.07;19.87;99328.13;105196;1271;73306;-70
2022/04/01 08:32:30;;;;;;;7.80;1.80;;;;;;;13.93;19.71;99327.42;105277;1271;59646;-70
2022/04/01 08:35:21;;;;;;;8.20;1.80;;;;;;;14.09;19.46;99333.98;105123;1271;60586;-71
2022/04/01 08:38:09;;;;;;;8.70;2.10;;;;;;;14.44;19.65;99326.10;105145;1271;73930;-70
2022/04/01 08:40:58;;;;;;;8.90;1.80;;;;;;;14.22;19.69;99324.62;105238;1271;67985;-70
2022/04/01 08:43:51;;;;;;;7.80;2.20;;;;;;;14.45;19.62;99337.07;104910;1273;71760;-71
2022/04/01 08:46:40;;;;;;;7.30;1.80;;;;;;;14.48;19.62;99336.59;105221;1271;59901;-71
2022/04/01 08:49:29;;;;;;;5.50;1.50;;;;;;;14.81;19.25;99327.73;105141;1271;59671;-70
2022/04/01 08:52:19;;;;;;;7.80;1.80;;;;;;;14.91;19.06;99332.00;105306;1271;73486;-70
2022/04/01 08:55:10;;;;;;;6.20;1.90;;;;;;;15.11;19.22;99334.90;105469;1271;69044;-71
2022/04/01 08:57:59;;;;;;;6.20;1.80;;;;;;;15.26;18.81;99329.17;105229;1273;71656;-71
2022/04/01 09:00:49;;;;;;;7.50;1.50;;;;;;;15.20;18.92;99325.73;105348;1271;59578;-71
2022/04/01 09:03:37;;;;;;;5.30;1.50;;;;;;;15.26;18.60;99324.86;105239;1271;60377;-70
2022/04/01 09:06:26;;;;;;;5.40;1.30;;;;;;;15.19;18.67;99327.20;104867;1271;454028;-70
2022/04/01 09:09:27;;;;;;;5.30;1.40;;;;;;;14.70;18.91;99327.65;104978;1271;66949;-71
2022/04/01 09:12:17;;;;;;;8.30;1.70;;;;;;;15.10;19.45;99328.44;105207;1271;71370;-71
2022/04/01 09:15:08;;;;;;;6.20;1.70;;;;;;;15.58;18.93;99334.59;105073;1271;59782;-71
2022/04/01 09:17:59;;;;;;;7.00;1.70;;;;;;;15.78;18.24;99325.76;105189;1271;60449;-70
2022/04/01 09:20:52;;;;;;;5.50;1.30;;;;;;;15.79;18.26;99324.77;105025;1271;71398;-71
2022/04/01 09:23:48;;;;;;;5.50;1.20;;;;;;;15.17;18.14;99321.36;105037;1271;66994;-70
2022/04/01 09:26:40;;;;;;;6.50;1.20;;;;;;;14.97;18.56;99316.60;105024;1271;72444;-70
2022/04/01 09:29:32;;;;;;;5.60;1.40;;;;;;;15.16;18.72;99322.21;105427;1271;59822;-70
2022/04/01 09:32:20;;;;;;;6.70;1.10;;;;;;;15.32;18.37;99319.90;105182;1271;60972;-71
2022/04/01 09:35:11;;;;;;;5.50;1.40;;;;;;;15.48;18.38;99322.54;105057;1271;73360;-71
2022/04/01 09:38:04;;;;;;;6.50;1.40;;;;;;;15.54;18.43;99322.00;105177;1272;66850;-70
2022/04/01 09:40:53;;;;;;;6.60;1.20;;;;;;;15.29;18.38;99313.63;105258;1271;72358;-70
2022/04/01 09:43:42;;;;;;;6.10;1.40;;;;;;;15.27;18.20;99316.91;105174;1271;59750;-70
2022/04/01 09:46:30;;;;;;;5.30;1.20;;;;;;;15.61;18.21;99319.59;104979;1271;61284;-70
2022/04/01 09:49:39;;;;;;;4.90;1.30;;;;;;;15.74;17.97;99315.49;104863;1271;72766;-70
2022/04/01 09:52:34;;;;;;;6.80;1.20;;;;;;;15.65;17.87;99309.50;105427;1271;66985;-71
2022/04/01 09:55:22;;;;;;;7.20;1.60;;;;;;;15.64;18.25;99310.85;105028;1271;73041;-71
2022/04/01 09:58:15;;;;;;;5.90;1.60;;;;;;;15.96;18.05;99311.88;105151;1271;59880;-71
2022/04/01 10:01:08;;;;;;;5.50;1.50;;;;;;;15.75;17.73;99310.57;105068;1272;59838;-72
2022/04/01 10:03:58;;;;;;;6.70;1.40;;;;;;;15.67;17.53;99308.21;104989;1271;71791;-71
2022/04/01 10:06:46;;;;;;;5.90;1.50;;;;;;;15.76;17.20;99312.46;105086;1271;68492;-72
2022/04/01 10:09:38;;;;;;;7.10;1.90;;;;;;;15.97;17.32;99314.95;105038;1271;73121;-71
2022/04/01 10:12:48;;;;;;;6.90;1.40;;;;;;;15.96;17.55;99321.30;105302;1271;59796;-72
2022/04/01 10:15:40;;;;;;;5.70;1.50;;;;;;;16.44;17.23;99319.20;105188;1272;59634;-70
2022/04/01 10:18:31;;;;;;;6.70;1.40;;;;;;;16.74;17.12;99300.90;105275;1271;71774;-71
2022/04/01 10:21:19;;;;;;;6.10;1.10;;;;;;;17.11;16.64;99306.30;105141;1271;66870;-71
2022/04/01 10:24:10;;;;;;;5.30;1.30;;;;;;;16.90;16.66;99305.10;105167;1271;73155;-72
2022/04/01 10:27:44;;;;;;;5.30;1.30;;;;;;;17.16;16.31;99303.67;105147;1271;59759;-72
2022/04/01 10:30:35;;;;;;;8.10;2.10;;;;;;;16.78;16.49;99300.56;104654;1278;60312;-71
2022/04/01 10:33:29;;;;;;;7.60;1.60;;;;;;;16.93;16.38;99292.77;104559;1278;73005;-72
2022/04/01 10:36:26;;;;;;;9.00;1.80;;;;;;;16.74;16.93;99290.66;104635;1278;66390;-71
2022/04/01 10:39:17;;;;;;;6.10;1.40;;;;;;;16.32;17.30;99295.62;104605;1278;73598;-71
2022/04/01 10:42:12;;;;;;;5.30;1.30;;;;;;;16.26;17.28;99304.71;104595;1281;59647;-71
2022/04/01 10:45:24;;;;;;;7.80;1.40;;;;;;;15.73;17.46;99307.68;104618;1278;59728;-70
2022/04/01 10:51:44;;;;;;;9.10;2.00;;;;;;;15.10;18.01;99295.30;104722;1277;68270;-71
2022/04/01 10:54:33;;;;;;;6.00;1.40;;;;;;;14.96;17.77;99300.96;104658;1278;70749;-71
2022/04/01 10:57:30;;;;;;;9.30;1.50;;;;;;;14.28;17.95;99295.99;104722;1278;59698;-71
2022/04/01 11:00:19;;;;;;;8.10;1.60;;;;;;;14.60;18.58;99301.89;104655;1282;61003;-71
2022/04/01 11:03:39;;;;;;;6.80;1.60;;;;;;;14.95;18.39;99289.89;104461;1281;72444;-71
2022/04/01 11:06:28;;;;;;;7.20;1.30;;;;;;;14.63;18.65;99296.22;104280;1284;68058;-71
2022/04/01 11:09:49;;;;;;;5.00;1.10;;;;;;;14.31;18.87;99294.10;104554;1279;72957;-71
2022/04/01 11:12:50;;;;;;;7.70;1.30;;;;;;;14.08;19.19;99293.45;104882;1278;59827;-70
2022/04/01 11:15:38;;;;;;;6.60;1.50;;;;;;;13.83;19.35;99291.52;105024;1278;59874;-70
2022/04/01 11:18:27;;;;;;;6.90;1.50;;;;;;;13.66;19.32;99295.69;104637;1278;73635;-71
2022/04/01 11:21:29;;;;;;;6.10;1.50;;;;;;;13.24;19.88;99293.84;104599;1278;67204;-70
2022/04/01 11:24:29;;;;;;;5.80;1.50;;;;;;;12.85;20.71;99305.33;104771;1279;73354;-70
2022/04/01 11:27:25;;;;;;;6.30;1.80;;;;;;;12.87;21.05;99300.73;104632;1278;59953;-70
2022/04/01 11:30:16;;;;;;;6.00;1.50;;;;;;;12.98;20.96;99290.58;104608;1278;60727;-70
2022/04/01 11:33:17;;;;;;;6.50;1.40;;;;;;;12.85;21.03;99292.14;104513;1278;73599;-70
2022/04/01 11:36:08;;;;;;;6.30;1.80;;;;;;;12.82;21.02;99299.27;104881;1277;67870;-70
2022/04/01 11:38:58;;;;;;;8.90;2.30;;;;;;;12.19;20.81;99300.07;104845;1277;71411;-72
2022/04/01 11:41:54;;;;;;;6.50;1.60;;;;;;;12.21;20.58;99308.04;104789;1278;59536;-71
2022/04/01 11:44:56;;;;;;;6.80;1.60;;;;;;;11.98;19.76;99295.61;105016;1274;59648;-70
2022/04/01 11:47:50;;;;;;;5.40;1.40;;;;;;;11.93;20.30;99298.54;105071;1273;72386;-71
2022/04/01 11:50:45;;;;;;;5.50;1.60;;;;;;;11.73;21.19;99299.95;105148;1274;66847;-71
2022/04/01 11:53:38;;;;;;;6.30;1.60;;;;;;;11.39;21.17;99297.20;104942;1274;71706;-71
2022/04/01 11:56:27;;;;;;;6.50;1.30;;;;;;;10.75;22.25;99296.69;105627;1271;59819;-71
2022/04/01 11:59:17;;;;;;;7.30;1.40;;;;;;;10.46;23.09;99295.59;105130;1271;59740;-70
2022/04/01 12:02:09;;;;;;;7.10;1.70;;;;;;;10.35;23.89;99289.11;105272;1271;72104;-70
2022/04/01 12:04:58;;;;;;;5.10;1.40;;;;;;;10.07;24.20;99289.59;105045;1274;67932;-71
2022/04/01 12:11:07;;;;;;;6.80;1.40;;;;;;;9.57;23.62;99293.56;105627;1271;59935;-71
2022/04/01 12:13:55;;;;;;;5.30;1.40;;;;;;;9.06;24.53;99294.26;104991;1271;59698;-72
2022/04/01 12:16:45;;;;;;;5.80;1.70;;;;;;;8.59;25.64;99291.05;105095;1271;72126;-71
2022/04/01 12:19:33;;;;;;;7.00;1.60;;;;;;;8.23;25.81;99299.59;105109;1271;67897;-69
2022/04/01 12:22:24;;;;;;;6.60;1.60;;;;;;;7.92;26.78;99310.19;105021;1271;71662;-70
2022/04/01 12:25:14;;;;;;;6.60;1.40;;;;;;;7.67;27.86;99301.85;105293;1271;59717;-70
2022/04/01 12:28:09;;;;;;;4.80;1.30;;;;;;;7.16;28.84;99309.80;105078;1272;59574;-70
2022/04/01 12:30:58;;;;;;;7.40;1.40;;;;;;;6.71;29.93;99298.67;105440;1272;73576;-71
2022/04/01 12:33:50;;;;;;;8.40;1.60;;;;;;;6.49;30.55;99305.94;105584;1272;66851;-69
2022/04/01 12:36:38;;;;;;;5.70;1.60;;;;;;;6.34;31.45;99301.32;105064;1271;71782;-70
2022/04/01 12:39:30;;;;;;;6.40;1.90;;;;;;;6.09;32.65;99296.95;105059;1271;59668;-70
2022/04/01 12:42:19;;;;;;;7.90;2.00;;;;;;;6.05;33.13;99304.61;105077;1271;61224;-70
2022/04/01 12:45:11;;;;;;;5.40;1.80;;;;;;;5.89;33.49;99298.35;104997;1271;71814;-71
2022/04/01 12:47:59;;;;;;;5.60;1.50;;;;;;;5.45;34.68;99309.98;105179;1271;66565;-69
2022/04/01 12:50:48;;;;;;;6.00;1.50;;;;;;;5.38;35.09;99306.76;105071;1271;72828;-71
2022/04/01 12:53:38;;;;;;;5.70;1.80;;;;;;;5.40;35.24;99310.86;104747;1271;59809;-70
2022/04/01 12:56:33;;;;;;;6.80;1.50;;;;;;;5.27;35.62;99309.45;105156;1271;59574;-69
2022/04/01 12:59:23;;;;;;;5.10;1.50;;;;;;;5.04;36.12;99303.63;105177;1271;71502;-71
2022/04/01 13:02:26;;;;;;;6.80;1.70;;;;;;;4.89;36.47;99316.54;105179;1271;67888;-70
2022/04/01 13:05:18;;;;;;;5.90;1.60;;;;;;;4.63;37.27;99314.18;104438;1271;1003146;-70
2022/04/01 13:08:10;;;;;;;6.80;1.80;;;;;;;4.61;37.72;99307.10;104930;1271;59895;-70
2022/04/01 13:11:15;;;;;;;7.20;1.90;;;;;;;4.69;37.93;99307.16;105195;1271;60405;-70
2022/04/01 13:14:28;;;;;;;6.50;2.20;;;;;;;4.84;37.92;99298.95;105110;1272;72669;-71
2022/04/01 13:17:16;;;;;;;5.60;1.50;;;;;;;4.84;38.20;99298.59;105173;1271;68265;-69
2022/04/01 13:20:06;;;;;;;7.80;1.80;;;;;;;4.81;38.12;99306.03;105094;1271;71381;-70
2022/04/01 13:22:55;;;;;;;8.20;1.80;;;;;;;4.65;38.45;99292.64;105709;1271;59863;-70
2022/04/01 13:25:43;;;;;;;6.40;2.00;;;;;;;4.59;38.56;99297.27;105320;1273;59769;-69
2022/04/01 13:28:32;;;;;;;6.80;2.10;;;;;;;4.54;38.79;99302.83;105678;1271;73394;-71
2022/04/01 13:31:23;;;;;;;7.90;2.00;;;;;;;4.34;39.20;99299.55;105384;1271;68971;-70
2022/04/01 13:34:13;;;;;;;6.50;1.90;;;;;;;4.24;39.73;99297.04;104927;1271;73477;-69
2022/04/01 13:37:02;;;;;;;6.10;1.90;;;;;;;4.20;39.57;99299.73;104952;1271;59783;-69
2022/04/01 13:39:50;;;;;;;6.80;1.90;;;;;;;4.05;39.15;99302.27;104761;1271;1003677;-69